sensor_id;sensor_type;location;lat;lon;timestamp;P1;durP1;ratioP1;P2;durP2;ratioP2
10295;SDS011;5193;51.032;6.356;2022-11-20T00:00:02;18.00;;;12.53;;
10295;SDS011;5193;51.032;6.356;2022-11-20T00:02:28;18.73;;;12.90;;
10295;SDS011;5193;51.032;6.356;2022-11-20T00:04:54;17.53;;;11.90;;
10295;SDS011;5193;51.032;6.356;2022-11-20T00:07:20;20.40;;;12.57;;
10295;SDS011;5193;51.032;6.356;2022-11-20T00:09:45;21.97;;;12.97;;
10295;SDS011;5193;51.032;6.356;2022-11-20T00:12:11;21.57;;;12.97;;
10295;SDS011;5193;51.032;6.356;2022-11-20T00:14:36;21.53;;;13.20;;
10295;SDS011;5193;51.032;6.356;2022-11-20T00:17:02;23.07;;;12.90;;
10295;SDS011;5193;51.032;6.356;2022-11-20T00:19:27;20.00;;;11.93;;
10295;SDS011;5193;51.032;6.356;2022-11-20T00:21:53;20.70;;;13.07;;
10295;SDS011;5193;51.032;6.356;2022-11-20T00:24:20;23.40;;;12.27;;
10295;SDS011;5193;51.032;6.356;2022-11-20T00:26:46;23.43;;;13.63;;
10295;SDS011;5193;51.032;6.356;2022-11-20T00:29:11;22.43;;;12.90;;
10295;SDS011;5193;51.032;6.356;2022-11-20T00:31:37;18.87;;;12.13;;
10295;SDS011;5193;51.032;6.356;2022-11-20T00:34:02;23.77;;;12.60;;
10295;SDS011;5193;51.032;6.356;2022-11-20T00:36:28;21.63;;;13.37;;
10295;SDS011;5193;51.032;6.356;2022-11-20T00:38:57;18.73;;;12.33;;
10295;SDS011;5193;51.032;6.356;2022-11-20T00:41:24;20.40;;;12.73;;
10295;SDS011;5193;51.032;6.356;2022-11-20T00:43:52;20.63;;;11.87;;
10295;SDS011;5193;51.032;6.356;2022-11-20T00:48:59;24.23;;;13.73;;
10295;SDS011;5193;51.032;6.356;2022-11-20T00:51:25;25.13;;;13.30;;
10295;SDS011;5193;51.032;6.356;2022-11-20T00:53:54;23.10;;;13.13;;
10295;SDS011;5193;51.032;6.356;2022-11-20T00:56:20;21.73;;;12.87;;
10295;SDS011;5193;51.032;6.356;2022-11-20T00:58:47;21.57;;;12.87;;
10295;SDS011;5193;51.032;6.356;2022-11-20T01:01:15;21.57;;;13.00;;
10295;SDS011;5193;51.032;6.356;2022-11-20T01:03:43;24.30;;;13.30;;
10295;SDS011;5193;51.032;6.356;2022-11-20T01:06:14;20.03;;;12.93;;
10295;SDS011;5193;51.032;6.356;2022-11-20T01:08:42;19.63;;;13.57;;
10295;SDS011;5193;51.032;6.356;2022-11-20T01:11:09;27.60;;;15.17;;
10295;SDS011;5193;51.032;6.356;2022-11-20T01:13:37;20.43;;;13.27;;
10295;SDS011;5193;51.032;6.356;2022-11-20T01:16:07;19.93;;;13.07;;
10295;SDS011;5193;51.032;6.356;2022-11-20T01:18:42;23.87;;;13.37;;
10295;SDS011;5193;51.032;6.356;2022-11-20T01:21:13;20.30;;;12.33;;
10295;SDS011;5193;51.032;6.356;2022-11-20T01:23:41;22.00;;;14.70;;
10295;SDS011;5193;51.032;6.356;2022-11-20T01:26:12;24.50;;;15.00;;
10295;SDS011;5193;51.032;6.356;2022-11-20T01:28:39;22.97;;;12.90;;
10295;SDS011;5193;51.032;6.356;2022-11-20T01:31:16;21.90;;;13.13;;
10295;SDS011;5193;51.032;6.356;2022-11-20T01:33:56;22.67;;;13.60;;
10295;SDS011;5193;51.032;6.356;2022-11-20T01:36:24;20.63;;;13.07;;
10295;SDS011;5193;51.032;6.356;2022-11-20T01:38:51;21.87;;;13.17;;
10295;SDS011;5193;51.032;6.356;2022-11-20T01:41:18;19.27;;;12.27;;
10295;SDS011;5193;51.032;6.356;2022-11-20T01:44:03;21.20;;;12.57;;
10295;SDS011;5193;51.032;6.356;2022-11-20T01:46:33;19.60;;;12.73;;
10295;SDS011;5193;51.032;6.356;2022-11-20T01:51:57;21.10;;;12.63;;
10295;SDS011;5193;51.032;6.356;2022-11-20T01:54:40;22.10;;;12.90;;
10295;SDS011;5193;51.032;6.356;2022-11-20T01:57:11;23.80;;;12.67;;
10295;SDS011;5193;51.032;6.356;2022-11-20T01:59:39;20.80;;;13.23;;
10295;SDS011;5193;51.032;6.356;2022-11-20T02:02:10;21.93;;;13.13;;
10295;SDS011;5193;51.032;6.356;2022-11-20T02:04:35;20.97;;;13.13;;
10295;SDS011;5193;51.032;6.356;2022-11-20T02:07:01;26.13;;;14.83;;
10295;SDS011;5193;51.032;6.356;2022-11-20T02:09:28;28.50;;;13.73;;
10295;SDS011;5193;51.032;6.356;2022-11-20T02:11:54;20.30;;;12.93;;
10295;SDS011;5193;51.032;6.356;2022-11-20T02:14:21;23.27;;;13.27;;
10295;SDS011;5193;51.032;6.356;2022-11-20T02:16:47;24.93;;;13.73;;
10295;SDS011;5193;51.032;6.356;2022-11-20T02:24:32;29.77;;;13.07;;
10295;SDS011;5193;51.032;6.356;2022-11-20T02:29:33;24.10;;;12.87;;
10295;SDS011;5193;51.032;6.356;2022-11-20T02:32:00;23.23;;;13.17;;
10295;SDS011;5193;51.032;6.356;2022-11-20T02:34:27;24.60;;;13.13;;
10295;SDS011;5193;51.032;6.356;2022-11-20T02:36:53;19.13;;;12.57;;
10295;SDS011;5193;51.032;6.356;2022-11-20T02:39:21;24.20;;;13.03;;
10295;SDS011;5193;51.032;6.356;2022-11-20T02:41:49;26.87;;;13.87;;
10295;SDS011;5193;51.032;6.356;2022-11-20T02:44:18;27.03;;;14.10;;
10295;SDS011;5193;51.032;6.356;2022-11-20T02:46:45;20.90;;;12.97;;
10295;SDS011;5193;51.032;6.356;2022-11-20T02:49:10;22.93;;;13.03;;
10295;SDS011;5193;51.032;6.356;2022-11-20T02:51:36;21.90;;;13.23;;
10295;SDS011;5193;51.032;6.356;2022-11-20T02:54:02;26.23;;;13.37;;
10295;SDS011;5193;51.032;6.356;2022-11-20T02:56:28;21.93;;;13.20;;
10295;SDS011;5193;51.032;6.356;2022-11-20T02:58:54;26.03;;;13.60;;
10295;SDS011;5193;51.032;6.356;2022-11-20T03:01:20;25.47;;;14.27;;
10295;SDS011;5193;51.032;6.356;2022-11-20T03:03:46;25.77;;;13.97;;
10295;SDS011;5193;51.032;6.356;2022-11-20T03:06:13;26.80;;;14.20;;
10295;SDS011;5193;51.032;6.356;2022-11-20T03:08:39;24.77;;;14.40;;
10295;SDS011;5193;51.032;6.356;2022-11-20T03:11:05;25.20;;;14.97;;
10295;SDS011;5193;51.032;6.356;2022-11-20T03:13:32;28.13;;;14.63;;
10295;SDS011;5193;51.032;6.356;2022-11-20T03:16:03;27.07;;;15.20;;
10295;SDS011;5193;51.032;6.356;2022-11-20T03:18:43;26.97;;;13.80;;
10295;SDS011;5193;51.032;6.356;2022-11-20T03:21:11;24.10;;;14.10;;
10295;SDS011;5193;51.032;6.356;2022-11-20T03:23:38;24.00;;;14.13;;
10295;SDS011;5193;51.032;6.356;2022-11-20T03:26:07;24.73;;;14.50;;
10295;SDS011;5193;51.032;6.356;2022-11-20T03:28:34;23.40;;;14.80;;
10295;SDS011;5193;51.032;6.356;2022-11-20T03:31:10;21.43;;;14.00;;
10295;SDS011;5193;51.032;6.356;2022-11-20T03:33:38;22.00;;;14.70;;
10295;SDS011;5193;51.032;6.356;2022-11-20T03:36:04;22.83;;;14.20;;
10295;SDS011;5193;51.032;6.356;2022-11-20T03:38:32;26.33;;;14.43;;
10295;SDS011;5193;51.032;6.356;2022-11-20T03:41:02;28.60;;;14.60;;
10295;SDS011;5193;51.032;6.356;2022-11-20T03:43:29;21.47;;;13.97;;
10295;SDS011;5193;51.032;6.356;2022-11-20T03:45:56;23.23;;;14.13;;
10295;SDS011;5193;51.032;6.356;2022-11-20T03:48:21;22.53;;;15.23;;
10295;SDS011;5193;51.032;6.356;2022-11-20T03:50:47;24.00;;;14.13;;
10295;SDS011;5193;51.032;6.356;2022-11-20T03:53:16;22.30;;;14.53;;
10295;SDS011;5193;51.032;6.356;2022-11-20T03:55:42;26.63;;;14.83;;
10295;SDS011;5193;51.032;6.356;2022-11-20T03:58:08;25.60;;;15.17;;
10295;SDS011;5193;51.032;6.356;2022-11-20T04:00:34;28.33;;;15.50;;
10295;SDS011;5193;51.032;6.356;2022-11-20T04:03:00;27.10;;;16.70;;
10295;SDS011;5193;51.032;6.356;2022-11-20T04:05:26;30.47;;;17.17;;
10295;SDS011;5193;51.032;6.356;2022-11-20T04:07:52;25.27;;;14.90;;
10295;SDS011;5193;51.032;6.356;2022-11-20T04:10:17;27.47;;;15.70;;
10295;SDS011;5193;51.032;6.356;2022-11-20T04:12:43;30.70;;;19.43;;
10295;SDS011;5193;51.032;6.356;2022-11-20T04:15:09;26.63;;;16.97;;
10295;SDS011;5193;51.032;6.356;2022-11-20T04:17:34;26.47;;;15.93;;
10295;SDS011;5193;51.032;6.356;2022-11-20T04:20:00;23.50;;;14.37;;
10295;SDS011;5193;51.032;6.356;2022-11-20T04:22:26;23.90;;;15.37;;
10295;SDS011;5193;51.032;6.356;2022-11-20T04:24:52;23.60;;;14.13;;
10295;SDS011;5193;51.032;6.356;2022-11-20T04:27:18;26.47;;;14.60;;
10295;SDS011;5193;51.032;6.356;2022-11-20T04:29:43;23.27;;;14.37;;
10295;SDS011;5193;51.032;6.356;2022-11-20T04:32:09;21.87;;;14.40;;
10295;SDS011;5193;51.032;6.356;2022-11-20T04:34:34;24.70;;;14.10;;
10295;SDS011;5193;51.032;6.356;2022-11-20T04:37:00;22.10;;;14.23;;
10295;SDS011;5193;51.032;6.356;2022-11-20T04:39:26;24.87;;;14.20;;
10295;SDS011;5193;51.032;6.356;2022-11-20T04:41:51;23.37;;;14.37;;
10295;SDS011;5193;51.032;6.356;2022-11-20T04:44:35;21.57;;;13.97;;
10295;SDS011;5193;51.032;6.356;2022-11-20T04:47:01;25.13;;;14.63;;
10295;SDS011;5193;51.032;6.356;2022-11-20T04:49:26;24.37;;;14.67;;
10295;SDS011;5193;51.032;6.356;2022-11-20T04:51:55;23.37;;;14.87;;
10295;SDS011;5193;51.032;6.356;2022-11-20T04:54:20;23.30;;;14.17;;
10295;SDS011;5193;51.032;6.356;2022-11-20T04:56:49;21.20;;;14.03;;
10295;SDS011;5193;51.032;6.356;2022-11-20T04:59:15;21.73;;;13.63;;
10295;SDS011;5193;51.032;6.356;2022-11-20T05:01:40;22.13;;;13.13;;
10295;SDS011;5193;51.032;6.356;2022-11-20T05:04:06;18.10;;;12.90;;
10295;SDS011;5193;51.032;6.356;2022-11-20T05:06:31;19.93;;;13.50;;
10295;SDS011;5193;51.032;6.356;2022-11-20T05:08:57;21.40;;;13.77;;
10295;SDS011;5193;51.032;6.356;2022-11-20T05:11:23;19.83;;;12.87;;
10295;SDS011;5193;51.032;6.356;2022-11-20T05:13:50;25.47;;;14.23;;
10295;SDS011;5193;51.032;6.356;2022-11-20T05:16:20;20.43;;;13.87;;
10295;SDS011;5193;51.032;6.356;2022-11-20T05:18:47;20.03;;;13.27;;
10295;SDS011;5193;51.032;6.356;2022-11-20T05:21:13;19.37;;;13.03;;
10295;SDS011;5193;51.032;6.356;2022-11-20T05:23:39;19.67;;;13.43;;
10295;SDS011;5193;51.032;6.356;2022-11-20T05:26:06;19.77;;;13.73;;
10295;SDS011;5193;51.032;6.356;2022-11-20T05:28:33;20.77;;;13.80;;
10295;SDS011;5193;51.032;6.356;2022-11-20T05:31:06;23.10;;;12.10;;
10295;SDS011;5193;51.032;6.356;2022-11-20T05:33:34;19.87;;;13.80;;
10295;SDS011;5193;51.032;6.356;2022-11-20T05:36:01;20.00;;;13.53;;
10295;SDS011;5193;51.032;6.356;2022-11-20T05:38:28;26.10;;;13.77;;
10295;SDS011;5193;51.032;6.356;2022-11-20T05:40:54;19.20;;;13.47;;
10295;SDS011;5193;51.032;6.356;2022-11-20T05:43:20;22.80;;;14.17;;
10295;SDS011;5193;51.032;6.356;2022-11-20T05:45:52;21.57;;;13.73;;
10295;SDS011;5193;51.032;6.356;2022-11-20T05:48:18;22.33;;;13.70;;
10295;SDS011;5193;51.032;6.356;2022-11-20T05:50:44;25.07;;;14.30;;
10295;SDS011;5193;51.032;6.356;2022-11-20T05:53:10;21.23;;;13.83;;
10295;SDS011;5193;51.032;6.356;2022-11-20T05:55:35;19.70;;;13.40;;
10295;SDS011;5193;51.032;6.356;2022-11-20T05:58:01;23.37;;;14.37;;
10295;SDS011;5193;51.032;6.356;2022-11-20T06:00:26;21.93;;;13.07;;
10295;SDS011;5193;51.032;6.356;2022-11-20T06:02:52;21.10;;;13.17;;
10295;SDS011;5193;51.032;6.356;2022-11-20T06:05:18;21.33;;;13.33;;
10295;SDS011;5193;51.032;6.356;2022-11-20T06:07:43;19.17;;;13.03;;
10295;SDS011;5193;51.032;6.356;2022-11-20T06:10:09;21.33;;;13.47;;
10295;SDS011;5193;51.032;6.356;2022-11-20T06:12:35;22.90;;;13.83;;
10295;SDS011;5193;51.032;6.356;2022-11-20T06:15:01;22.87;;;12.67;;
10295;SDS011;5193;51.032;6.356;2022-11-20T06:17:27;18.90;;;13.03;;
10295;SDS011;5193;51.032;6.356;2022-11-20T06:19:53;20.37;;;13.23;;
10295;SDS011;5193;51.032;6.356;2022-11-20T06:22:19;18.33;;;12.53;;
10295;SDS011;5193;51.032;6.356;2022-11-20T06:24:45;19.53;;;12.83;;
10295;SDS011;5193;51.032;6.356;2022-11-20T06:27:11;20.20;;;13.17;;
10295;SDS011;5193;51.032;6.356;2022-11-20T06:29:36;23.47;;;14.57;;
10295;SDS011;5193;51.032;6.356;2022-11-20T06:32:02;20.37;;;13.60;;
10295;SDS011;5193;51.032;6.356;2022-11-20T06:34:28;20.37;;;14.17;;
10295;SDS011;5193;51.032;6.356;2022-11-20T06:36:54;24.13;;;14.53;;
10295;SDS011;5193;51.032;6.356;2022-11-20T06:39:20;20.00;;;13.87;;
10295;SDS011;5193;51.032;6.356;2022-11-20T06:41:46;22.90;;;14.80;;
10295;SDS011;5193;51.032;6.356;2022-11-20T06:44:11;20.23;;;13.60;;
10295;SDS011;5193;51.032;6.356;2022-11-20T06:46:37;19.27;;;13.40;;
10295;SDS011;5193;51.032;6.356;2022-11-20T06:51:53;21.97;;;13.63;;
10295;SDS011;5193;51.032;6.356;2022-11-20T06:54:19;19.13;;;12.83;;
10295;SDS011;5193;51.032;6.356;2022-11-20T06:56:47;20.30;;;13.53;;
10295;SDS011;5193;51.032;6.356;2022-11-20T06:59:13;20.80;;;13.50;;
10295;SDS011;5193;51.032;6.356;2022-11-20T07:01:39;18.77;;;13.20;;
10295;SDS011;5193;51.032;6.356;2022-11-20T07:04:05;23.13;;;14.30;;
10295;SDS011;5193;51.032;6.356;2022-11-20T07:06:30;20.83;;;13.60;;
10295;SDS011;5193;51.032;6.356;2022-11-20T07:08:56;21.47;;;13.93;;
10295;SDS011;5193;51.032;6.356;2022-11-20T07:11:22;28.47;;;14.53;;
10295;SDS011;5193;51.032;6.356;2022-11-20T07:13:48;23.93;;;14.00;;
10295;SDS011;5193;51.032;6.356;2022-11-20T07:16:14;21.53;;;14.17;;
10295;SDS011;5193;51.032;6.356;2022-11-20T07:18:40;22.80;;;13.13;;
10295;SDS011;5193;51.032;6.356;2022-11-20T07:21:06;21.47;;;12.97;;
10295;SDS011;5193;51.032;6.356;2022-11-20T07:23:33;24.97;;;14.23;;
10295;SDS011;5193;51.032;6.356;2022-11-20T07:26:02;25.37;;;15.77;;
10295;SDS011;5193;51.032;6.356;2022-11-20T07:28:32;27.63;;;15.03;;
10295;SDS011;5193;51.032;6.356;2022-11-20T07:30:58;30.80;;;15.40;;
10295;SDS011;5193;51.032;6.356;2022-11-20T07:33:23;26.07;;;14.97;;
10295;SDS011;5193;51.032;6.356;2022-11-20T07:35:49;31.53;;;17.03;;
10295;SDS011;5193;51.032;6.356;2022-11-20T07:38:15;39.27;;;17.53;;
10295;SDS011;5193;51.032;6.356;2022-11-20T07:40:40;45.00;;;19.00;;
10295;SDS011;5193;51.032;6.356;2022-11-20T07:43:06;36.83;;;17.00;;
10295;SDS011;5193;51.032;6.356;2022-11-20T07:45:31;38.60;;;18.50;;
10295;SDS011;5193;51.032;6.356;2022-11-20T07:47:57;35.97;;;18.37;;
10295;SDS011;5193;51.032;6.356;2022-11-20T07:50:22;38.80;;;19.27;;
10295;SDS011;5193;51.032;6.356;2022-11-20T07:52:48;44.17;;;19.93;;
10295;SDS011;5193;51.032;6.356;2022-11-20T07:55:14;41.53;;;19.77;;
10295;SDS011;5193;51.032;6.356;2022-11-20T07:57:40;39.57;;;18.70;;
10295;SDS011;5193;51.032;6.356;2022-11-20T08:00:06;47.03;;;20.83;;
10295;SDS011;5193;51.032;6.356;2022-11-20T08:02:39;42.20;;;19.20;;
10295;SDS011;5193;51.032;6.356;2022-11-20T08:05:05;47.40;;;20.07;;
10295;SDS011;5193;51.032;6.356;2022-11-20T08:07:36;45.83;;;19.80;;
10295;SDS011;5193;51.032;6.356;2022-11-20T08:10:03;47.60;;;20.90;;
10295;SDS011;5193;51.032;6.356;2022-11-20T08:12:29;50.77;;;20.37;;
10295;SDS011;5193;51.032;6.356;2022-11-20T08:15:13;44.23;;;19.87;;
10295;SDS011;5193;51.032;6.356;2022-11-20T08:17:38;42.13;;;20.33;;
10295;SDS011;5193;51.032;6.356;2022-11-20T08:20:04;42.60;;;18.50;;
10295;SDS011;5193;51.032;6.356;2022-11-20T08:22:30;48.37;;;19.90;;
10295;SDS011;5193;51.032;6.356;2022-11-20T08:24:55;50.77;;;21.00;;
10295;SDS011;5193;51.032;6.356;2022-11-20T08:27:21;47.10;;;20.63;;
10295;SDS011;5193;51.032;6.356;2022-11-20T08:29:46;39.00;;;18.60;;
10295;SDS011;5193;51.032;6.356;2022-11-20T08:32:12;39.27;;;19.13;;
10295;SDS011;5193;51.032;6.356;2022-11-20T08:34:37;45.80;;;21.30;;
10295;SDS011;5193;51.032;6.356;2022-11-20T08:37:03;39.40;;;19.00;;
10295;SDS011;5193;51.032;6.356;2022-11-20T08:39:28;40.80;;;20.37;;
10295;SDS011;5193;51.032;6.356;2022-11-20T08:41:54;38.17;;;18.63;;
10295;SDS011;5193;51.032;6.356;2022-11-20T08:44:20;35.03;;;18.07;;
10295;SDS011;5193;51.032;6.356;2022-11-20T08:46:45;38.63;;;16.23;;
10295;SDS011;5193;51.032;6.356;2022-11-20T08:49:12;34.63;;;17.07;;
10295;SDS011;5193;51.032;6.356;2022-11-20T08:51:39;36.33;;;17.07;;
10295;SDS011;5193;51.032;6.356;2022-11-20T08:54:05;38.03;;;17.70;;
10295;SDS011;5193;51.032;6.356;2022-11-20T08:56:31;37.60;;;17.43;;
10295;SDS011;5193;51.032;6.356;2022-11-20T08:58:58;33.87;;;17.63;;
10295;SDS011;5193;51.032;6.356;2022-11-20T09:01:26;38.53;;;17.50;;
10295;SDS011;5193;51.032;6.356;2022-11-20T09:03:54;34.93;;;16.43;;
10295;SDS011;5193;51.032;6.356;2022-11-20T09:06:21;35.47;;;18.77;;
10295;SDS011;5193;51.032;6.356;2022-11-20T09:08:51;41.53;;;18.17;;
10295;SDS011;5193;51.032;6.356;2022-11-20T09:11:17;36.93;;;18.37;;
10295;SDS011;5193;51.032;6.356;2022-11-20T09:13:42;33.30;;;18.03;;
10295;SDS011;5193;51.032;6.356;2022-11-20T09:16:08;36.20;;;17.73;;
10295;SDS011;5193;51.032;6.356;2022-11-20T09:18:34;39.07;;;17.70;;
10295;SDS011;5193;51.032;6.356;2022-11-20T09:21:02;29.13;;;16.33;;
10295;SDS011;5193;51.032;6.356;2022-11-20T09:23:34;39.63;;;18.30;;
10295;SDS011;5193;51.032;6.356;2022-11-20T09:26:04;34.50;;;17.77;;
10295;SDS011;5193;51.032;6.356;2022-11-20T09:28:30;30.63;;;16.63;;
10295;SDS011;5193;51.032;6.356;2022-11-20T09:30:57;29.93;;;16.70;;
10295;SDS011;5193;51.032;6.356;2022-11-20T09:33:23;28.07;;;15.80;;
10295;SDS011;5193;51.032;6.356;2022-11-20T09:35:48;31.13;;;15.80;;
10295;SDS011;5193;51.032;6.356;2022-11-20T09:38:14;29.83;;;15.90;;
10295;SDS011;5193;51.032;6.356;2022-11-20T09:40:43;31.30;;;15.63;;
10295;SDS011;5193;51.032;6.356;2022-11-20T09:46:25;27.80;;;15.37;;
10295;SDS011;5193;51.032;6.356;2022-11-20T09:49:19;25.70;;;14.80;;
10295;SDS011;5193;51.032;6.356;2022-11-20T09:54:46;22.97;;;14.00;;
10295;SDS011;5193;51.032;6.356;2022-11-20T09:57:13;25.33;;;14.20;;
10295;SDS011;5193;51.032;6.356;2022-11-20T09:59:45;25.00;;;13.50;;
10295;SDS011;5193;51.032;6.356;2022-11-20T10:04:59;26.23;;;14.67;;
10295;SDS011;5193;51.032;6.356;2022-11-20T10:07:39;26.73;;;14.70;;
10295;SDS011;5193;51.032;6.356;2022-11-20T10:10:16;28.93;;;14.80;;
10295;SDS011;5193;51.032;6.356;2022-11-20T10:12:50;24.77;;;14.13;;
10295;SDS011;5193;51.032;6.356;2022-11-20T10:15:33;28.77;;;15.33;;
10295;SDS011;5193;51.032;6.356;2022-11-20T10:18:04;23.07;;;14.43;;
10295;SDS011;5193;51.032;6.356;2022-11-20T10:25:47;26.60;;;14.80;;
10295;SDS011;5193;51.032;6.356;2022-11-20T10:31:17;25.10;;;13.40;;
10295;SDS011;5193;51.032;6.356;2022-11-20T10:34:07;26.63;;;14.00;;
10295;SDS011;5193;51.032;6.356;2022-11-20T10:36:55;25.53;;;14.23;;
10295;SDS011;5193;51.032;6.356;2022-11-20T10:42:23;28.87;;;15.07;;
10295;SDS011;5193;51.032;6.356;2022-11-20T10:47:44;24.20;;;14.57;;
10295;SDS011;5193;51.032;6.356;2022-11-20T10:50:11;26.37;;;15.37;;
10295;SDS011;5193;51.032;6.356;2022-11-20T10:55:30;25.13;;;14.77;;
10295;SDS011;5193;51.032;6.356;2022-11-20T11:00:36;22.03;;;14.17;;
10295;SDS011;5193;51.032;6.356;2022-11-20T11:03:02;25.97;;;14.37;;
10295;SDS011;5193;51.032;6.356;2022-11-20T11:05:41;33.03;;;14.73;;
10295;SDS011;5193;51.032;6.356;2022-11-20T11:08:16;27.00;;;14.60;;
10295;SDS011;5193;51.032;6.356;2022-11-20T11:13:23;23.20;;;13.53;;
10295;SDS011;5193;51.032;6.356;2022-11-20T11:15:50;25.87;;;15.40;;
10295;SDS011;5193;51.032;6.356;2022-11-20T11:18:30;25.80;;;15.13;;
10295;SDS011;5193;51.032;6.356;2022-11-20T11:20:57;24.73;;;15.27;;
10295;SDS011;5193;51.032;6.356;2022-11-20T11:26:04;26.60;;;16.83;;
10295;SDS011;5193;51.032;6.356;2022-11-20T11:28:32;27.33;;;15.63;;
10295;SDS011;5193;51.032;6.356;2022-11-20T11:30:58;29.33;;;15.03;;
10295;SDS011;5193;51.032;6.356;2022-11-20T11:33:24;26.67;;;15.90;;
10295;SDS011;5193;51.032;6.356;2022-11-20T11:38:27;25.27;;;14.17;;
10295;SDS011;5193;51.032;6.356;2022-11-20T11:40:53;27.27;;;14.33;;
10295;SDS011;5193;51.032;6.356;2022-11-20T11:43:21;23.93;;;14.63;;
10295;SDS011;5193;51.032;6.356;2022-11-20T11:46:21;24.73;;;14.43;;
10295;SDS011;5193;51.032;6.356;2022-11-20T11:51:24;25.90;;;15.27;;
10295;SDS011;5193;51.032;6.356;2022-11-20T11:53:58;25.97;;;15.77;;
10295;SDS011;5193;51.032;6.356;2022-11-20T11:56:25;25.43;;;16.10;;
10295;SDS011;5193;51.032;6.356;2022-11-20T11:58:53;28.93;;;16.40;;
10295;SDS011;5193;51.032;6.356;2022-11-20T12:01:58;25.87;;;15.40;;
10295;SDS011;5193;51.032;6.356;2022-11-20T12:07:22;24.60;;;14.43;;
10295;SDS011;5193;51.032;6.356;2022-11-20T12:09:53;22.27;;;14.33;;
10295;SDS011;5193;51.032;6.356;2022-11-20T12:12:24;26.90;;;15.07;;
10295;SDS011;5193;51.032;6.356;2022-11-20T12:14:56;24.67;;;14.77;;
10295;SDS011;5193;51.032;6.356;2022-11-20T12:17:22;26.50;;;15.07;;
10295;SDS011;5193;51.032;6.356;2022-11-20T12:19:49;26.03;;;15.47;;
10295;SDS011;5193;51.032;6.356;2022-11-20T12:30:42;29.47;;;15.73;;
10295;SDS011;5193;51.032;6.356;2022-11-20T12:33:34;30.73;;;15.43;;
10295;SDS011;5193;51.032;6.356;2022-11-20T12:36:26;31.73;;;15.37;;
10295;SDS011;5193;51.032;6.356;2022-11-20T12:50:28;25.90;;;15.10;;
10295;SDS011;5193;51.032;6.356;2022-11-20T12:53:22;34.43;;;17.23;;
10295;SDS011;5193;51.032;6.356;2022-11-20T12:56:03;28.27;;;16.87;;
10295;SDS011;5193;51.032;6.356;2022-11-20T13:01:32;29.27;;;18.00;;
10295;SDS011;5193;51.032;6.356;2022-11-20T13:07:03;27.50;;;15.77;;
10295;SDS011;5193;51.032;6.356;2022-11-20T13:09:42;28.83;;;15.47;;
10295;SDS011;5193;51.032;6.356;2022-11-20T13:12:12;29.10;;;17.40;;
10295;SDS011;5193;51.032;6.356;2022-11-20T13:17:24;25.70;;;15.17;;
10295;SDS011;5193;51.032;6.356;2022-11-20T13:20:05;23.43;;;14.30;;
10295;SDS011;5193;51.032;6.356;2022-11-20T13:25:23;24.90;;;14.43;;
10295;SDS011;5193;51.032;6.356;2022-11-20T13:27:57;25.90;;;15.80;;
10295;SDS011;5193;51.032;6.356;2022-11-20T13:30:25;23.43;;;14.57;;
10295;SDS011;5193;51.032;6.356;2022-11-20T13:32:55;27.83;;;15.97;;
10295;SDS011;5193;51.032;6.356;2022-11-20T13:35:34;34.13;;;17.73;;
10295;SDS011;5193;51.032;6.356;2022-11-20T13:38:10;25.43;;;15.90;;
10295;SDS011;5193;51.032;6.356;2022-11-20T13:40:39;24.67;;;15.03;;
10295;SDS011;5193;51.032;6.356;2022-11-20T13:43:51;25.47;;;15.57;;
10295;SDS011;5193;51.032;6.356;2022-11-20T13:46:18;27.10;;;15.80;;
10295;SDS011;5193;51.032;6.356;2022-11-20T13:48:49;28.37;;;15.37;;
10295;SDS011;5193;51.032;6.356;2022-11-20T13:54:18;21.63;;;13.00;;
10295;SDS011;5193;51.032;6.356;2022-11-20T13:57:05;25.60;;;14.63;;
10295;SDS011;5193;51.032;6.356;2022-11-20T13:59:48;23.57;;;12.50;;
10295;SDS011;5193;51.032;6.356;2022-11-20T14:02:18;27.40;;;15.23;;
10295;SDS011;5193;51.032;6.356;2022-11-20T14:04:49;24.50;;;14.33;;
10295;SDS011;5193;51.032;6.356;2022-11-20T14:07:18;28.10;;;15.47;;
10295;SDS011;5193;51.032;6.356;2022-11-20T14:09:53;26.77;;;15.60;;
10295;SDS011;5193;51.032;6.356;2022-11-20T14:12:22;22.40;;;12.57;;
10295;SDS011;5193;51.032;6.356;2022-11-20T14:14:53;27.17;;;13.27;;
10295;SDS011;5193;51.032;6.356;2022-11-20T14:19:58;27.03;;;15.23;;
10295;SDS011;5193;51.032;6.356;2022-11-20T14:22:27;32.70;;;17.63;;
10295;SDS011;5193;51.032;6.356;2022-11-20T14:27:37;26.47;;;14.60;;
10295;SDS011;5193;51.032;6.356;2022-11-20T14:30:06;26.53;;;14.43;;
10295;SDS011;5193;51.032;6.356;2022-11-20T14:32:39;18.87;;;11.43;;
10295;SDS011;5193;51.032;6.356;2022-11-20T14:35:07;21.67;;;12.13;;
10295;SDS011;5193;51.032;6.356;2022-11-20T14:37:36;21.17;;;12.07;;
10295;SDS011;5193;51.032;6.356;2022-11-20T14:40:04;22.93;;;12.53;;
10295;SDS011;5193;51.032;6.356;2022-11-20T14:42:51;20.63;;;11.80;;
10295;SDS011;5193;51.032;6.356;2022-11-20T14:45:16;22.63;;;12.90;;
10295;SDS011;5193;51.032;6.356;2022-11-20T14:47:43;21.03;;;11.93;;
10295;SDS011;5193;51.032;6.356;2022-11-20T14:50:19;23.67;;;12.97;;
10295;SDS011;5193;51.032;6.356;2022-11-20T14:52:52;21.63;;;12.23;;
10295;SDS011;5193;51.032;6.356;2022-11-20T14:55:25;23.67;;;12.80;;
10295;SDS011;5193;51.032;6.356;2022-11-20T14:58:03;23.00;;;13.33;;
10295;SDS011;5193;51.032;6.356;2022-11-20T15:00:31;21.63;;;11.40;;
10295;SDS011;5193;51.032;6.356;2022-11-20T15:02:57;21.10;;;12.13;;
10295;SDS011;5193;51.032;6.356;2022-11-20T15:05:24;24.50;;;12.13;;
10295;SDS011;5193;51.032;6.356;2022-11-20T15:08:13;24.77;;;12.90;;
10295;SDS011;5193;51.032;6.356;2022-11-20T15:10:38;18.70;;;11.13;;
10295;SDS011;5193;51.032;6.356;2022-11-20T15:13:13;23.53;;;12.93;;
10295;SDS011;5193;51.032;6.356;2022-11-20T15:15:54;23.60;;;11.90;;
10295;SDS011;5193;51.032;6.356;2022-11-20T15:18:22;21.43;;;12.67;;
10295;SDS011;5193;51.032;6.356;2022-11-20T15:20:54;24.40;;;13.73;;
10295;SDS011;5193;51.032;6.356;2022-11-20T15:23:22;25.23;;;14.13;;
10295;SDS011;5193;51.032;6.356;2022-11-20T15:25:48;19.90;;;12.33;;
10295;SDS011;5193;51.032;6.356;2022-11-20T15:28:31;24.37;;;12.50;;
10295;SDS011;5193;51.032;6.356;2022-11-20T15:30:57;18.97;;;10.93;;
10295;SDS011;5193;51.032;6.356;2022-11-20T15:33:22;15.30;;;9.40;;
10295;SDS011;5193;51.032;6.356;2022-11-20T15:35:48;16.17;;;7.80;;
10295;SDS011;5193;51.032;6.356;2022-11-20T15:38:14;12.90;;;8.30;;
10295;SDS011;5193;51.032;6.356;2022-11-20T15:40:39;19.37;;;8.30;;
10295;SDS011;5193;51.032;6.356;2022-11-20T15:43:05;16.70;;;8.67;;
10295;SDS011;5193;51.032;6.356;2022-11-20T15:45:39;18.00;;;8.80;;
10295;SDS011;5193;51.032;6.356;2022-11-20T15:48:27;12.90;;;8.60;;
10295;SDS011;5193;51.032;6.356;2022-11-20T15:53:36;16.17;;;9.80;;
10295;SDS011;5193;51.032;6.356;2022-11-20T15:56:02;16.17;;;8.27;;
10295;SDS011;5193;51.032;6.356;2022-11-20T15:58:28;12.63;;;7.63;;
10295;SDS011;5193;51.032;6.356;2022-11-20T16:00:54;15.07;;;8.47;;
10295;SDS011;5193;51.032;6.356;2022-11-20T16:03:20;13.23;;;7.90;;
10295;SDS011;5193;51.032;6.356;2022-11-20T16:05:46;13.53;;;7.40;;
10295;SDS011;5193;51.032;6.356;2022-11-20T16:08:11;11.23;;;7.63;;
10295;SDS011;5193;51.032;6.356;2022-11-20T16:10:37;11.57;;;6.23;;
10295;SDS011;5193;51.032;6.356;2022-11-20T16:13:03;14.93;;;7.80;;
10295;SDS011;5193;51.032;6.356;2022-11-20T16:15:56;16.73;;;8.50;;
10295;SDS011;5193;51.032;6.356;2022-11-20T16:18:23;15.47;;;8.67;;
10295;SDS011;5193;51.032;6.356;2022-11-20T16:20:51;16.20;;;10.00;;
10295;SDS011;5193;51.032;6.356;2022-11-20T16:23:18;17.13;;;9.30;;
10295;SDS011;5193;51.032;6.356;2022-11-20T16:25:45;19.73;;;10.13;;